Time;durP1;ratioP1;P1;durP2;ratioP2;P2;SDS_P1;SDS_P2;PMS_P1;PMS_P2;Temp;Humidity;BMP_temperature;BMP_pressure;BME280_temperature;BME280_humidity;BME280_pressure;Samples;Min_cycle;Max_cycle;Signal;HPM_P1;HPM_P2
2023/05/02 00:02:09;;;;;;;;;;;13.20;72.50;;;;;;5090361;28;20015;-67
2023/05/02 00:04:36;;;;;;;;;;;13.20;72.60;;;;;;5087791;28;19932;-67
2023/05/02 00:07:07;;;;;;;;;;;13.20;72.70;;;;;;5093529;28;19979;-65
2023/05/02 00:09:34;;;;;;;;;;;13.20;72.80;;;;;;5088556;28;19928;-66
2023/05/02 00:12:01;;;;;;;;;;;13.20;72.70;;;;;;5087338;28;20045;-67
2023/05/02 00:14:28;;;;;;;;;;;13.10;73.00;;;;;;5088222;28;19928;-67
2023/05/02 00:16:55;;;;;;;;;;;13.10;73.40;;;;;;5090329;28;19978;-68
2023/05/02 00:19:21;;;;;;;;;;;13.00;73.60;;;;;;5089833;28;19928;-68
2023/05/02 00:21:48;;;;;;;;;;;13.00;73.80;;;;;;5090756;28;19928;-67
2023/05/02 00:24:17;;;;;;;;;;;13.00;73.90;;;;;;5089376;28;19928;-67
2023/05/02 00:26:44;;;;;;;;;;;13.00;73.80;;;;;;5090994;28;20355;-67
2023/05/02 00:29:11;;;;;;;;;;;13.00;73.90;;;;;;5088936;28;19928;-68
2023/05/02 00:31:40;;;;;;;;;;;13.00;74.00;;;;;;5088522;28;19927;-67
2023/05/02 00:34:07;;;;;;;;;;;12.90;74.20;;;;;;5085286;28;19924;-67
2023/05/02 00:36:34;;;;;;;;;;;12.90;74.40;;;;;;5078826;28;19985;-66
2023/05/02 00:39:01;;;;;;;;;;;12.90;74.50;;;;;;5070427;28;19932;-68
2023/05/02 00:41:29;;;;;;;;;;;12.80;74.60;;;;;;5090013;28;19943;-67
2023/05/02 00:43:58;;;;;;;;;;;12.80;74.70;;;;;;5088122;28;20399;-67
2023/05/02 00:46:25;;;;;;;;;;;12.80;74.80;;;;;;5086511;28;19939;-67
2023/05/02 00:48:54;;;;;;;;;;;12.80;74.70;;;;;;5088093;28;19923;-66
2023/05/02 00:51:22;;;;;;;;;;;12.70;74.60;;;;;;5086569;28;19927;-67
2023/05/02 00:53:49;;;;;;;;;;;12.60;75.00;;;;;;5089390;28;19925;-67
2023/05/02 00:56:15;;;;;;;;;;;12.60;75.20;;;;;;5090670;28;19966;-66
2023/05/02 00:58:44;;;;;;;;;;;12.50;75.10;;;;;;5086927;28;19975;-66
2023/05/02 01:01:16;;;;;;;;;;;12.50;75.10;;;;;;5088843;28;19946;-67
2023/05/02 01:03:49;;;;;;;;;;;12.60;74.90;;;;;;5087598;28;20032;-66
2023/05/02 01:06:21;;;;;;;;;;;12.60;75.00;;;;;;5084138;28;20012;-66
2023/05/02 01:08:52;;;;;;;;;;;12.50;75.20;;;;;;5087645;28;20011;-66
2023/05/02 01:11:27;;;;;;;;;;;12.50;75.30;;;;;;5087650;28;19928;-66
2023/05/02 01:13:57;;;;;;;;;;;12.50;75.30;;;;;;5088477;28;20004;-67
2023/05/02 01:16:24;;;;;;;;;;;12.50;75.40;;;;;;5086662;28;19966;-65
2023/05/02 01:18:51;;;;;;;;;;;12.40;75.90;;;;;;5071190;28;19950;-66
2023/05/02 01:21:18;;;;;;;;;;;12.40;76.10;;;;;;5081299;28;19959;-66
2023/05/02 01:23:47;;;;;;;;;;;12.40;76.10;;;;;;5086859;28;20397;-67
2023/05/02 01:26:16;;;;;;;;;;;12.40;76.00;;;;;;5092186;28;19924;-66
2023/05/02 01:29:04;;;;;;;;;;;12.40;76.10;;;;;;5070816;28;19924;-67
2023/05/02 01:31:34;;;;;;;;;;;12.40;76.50;;;;;;5066872;28;20382;-68
2023/05/02 01:34:02;;;;;;;;;;;12.40;76.70;;;;;;5089064;28;20408;-67
2023/05/02 01:36:31;;;;;;;;;;;12.40;76.80;;;;;;5090561;28;19940;-67
2023/05/02 01:39:00;;;;;;;;;;;12.40;76.80;;;;;;5080542;28;19939;-67
2023/05/02 01:41:28;;;;;;;;;;;12.40;77.10;;;;;;5068025;28;19935;-67
2023/05/02 01:43:57;;;;;;;;;;;12.30;77.00;;;;;;5091399;28;20263;-70
2023/05/02 01:46:25;;;;;;;;;;;12.30;77.00;;;;;;5093071;28;19935;-67
2023/05/02 01:48:53;;;;;;;;;;;12.30;77.10;;;;;;5090784;28;20027;-67
2023/05/02 01:51:21;;;;;;;;;;;12.30;77.30;;;;;;5089028;28;19935;-67
2023/05/02 01:53:48;;;;;;;;;;;12.30;77.30;;;;;;5088537;28;19928;-67
2023/05/02 01:56:17;;;;;;;;;;;12.30;77.40;;;;;;5090902;28;19928;-67
2023/05/02 01:58:45;;;;;;;;;;;12.40;77.30;;;;;;5083007;28;19973;-66
2023/05/02 02:01:13;;;;;;;;;;;12.30;77.40;;;;;;5087276;28;19928;-66
2023/05/02 02:03:40;;;;;;;;;;;12.30;77.60;;;;;;5088547;28;19932;-67
2023/05/02 02:06:08;;;;;;;;;;;12.30;77.70;;;;;;5072739;28;19928;-67
2023/05/02 02:08:35;;;;;;;;;;;12.30;77.60;;;;;;5069808;28;20025;-67
2023/05/02 02:11:07;;;;;;;;;;;12.20;77.80;;;;;;5090704;28;19936;-67
2023/05/02 02:13:37;;;;;;;;;;;12.20;77.90;;;;;;5089208;28;20006;-67
2023/05/02 02:16:04;;;;;;;;;;;12.20;78.00;;;;;;5090705;28;19932;-67
2023/05/02 02:18:34;;;;;;;;;;;12.20;78.00;;;;;;5091376;28;19932;-66
2023/05/02 02:21:02;;;;;;;;;;;12.20;78.10;;;;;;5092013;28;19931;-68
2023/05/02 02:23:33;;;;;;;;;;;12.10;78.20;;;;;;5089336;28;20016;-67
2023/05/02 02:26:01;;;;;;;;;;;12.10;78.30;;;;;;5089157;28;20019;-67
2023/05/02 02:28:28;;;;;;;;;;;12.10;78.30;;;;;;5071932;28;19929;-67
2023/05/02 02:30:55;;;;;;;;;;;12.00;78.40;;;;;;5072261;28;19924;-67
2023/05/02 02:33:24;;;;;;;;;;;12.00;78.40;;;;;;5072117;28;19939;-67
2023/05/02 02:35:55;;;;;;;;;;;12.10;78.40;;;;;;5088609;28;19923;-66
2023/05/02 02:38:27;;;;;;;;;;;12.10;78.40;;;;;;5088024;28;19928;-67
2023/05/02 02:40:57;;;;;;;;;;;12.10;78.20;;;;;;5073469;28;19950;-67
2023/05/02 02:43:27;;;;;;;;;;;12.10;78.10;;;;;;5069643;28;19924;-67
2023/05/02 02:45:57;;;;;;;;;;;12.10;78.20;;;;;;5073806;28;19928;-67
2023/05/02 02:48:29;;;;;;;;;;;12.10;78.30;;;;;;5090690;28;19935;-66
2023/05/02 02:51:03;;;;;;;;;;;12.10;78.40;;;;;;5070167;28;19979;-64
2023/05/02 02:53:33;;;;;;;;;;;12.10;78.50;;;;;;5091334;28;19935;-67
2023/05/02 02:56:04;;;;;;;;;;;12.10;78.40;;;;;;5085413;28;19968;-67
2023/05/02 02:58:34;;;;;;;;;;;12.00;78.40;;;;;;5090731;28;19924;-67
2023/05/02 03:01:02;;;;;;;;;;;12.00;78.60;;;;;;5087406;28;20500;-67
2023/05/02 03:03:32;;;;;;;;;;;12.00;78.60;;;;;;5089636;28;20548;-67
2023/05/02 03:05:59;;;;;;;;;;;11.90;78.80;;;;;;5090599;28;19927;-67
2023/05/02 03:08:27;;;;;;;;;;;11.90;78.90;;;;;;5072142;28;19932;-67
2023/05/02 03:10:53;;;;;;;;;;;11.90;78.80;;;;;;5086834;28;19930;-67
2023/05/02 03:13:22;;;;;;;;;;;11.90;78.90;;;;;;5089078;28;19967;-64
2023/05/02 03:16:07;;;;;;;;;;;11.80;79.00;;;;;;5070855;28;19963;-67
2023/05/02 03:18:34;;;;;;;;;;;11.80;78.90;;;;;;5055898;28;20336;-67
2023/05/02 03:21:01;;;;;;;;;;;11.80;79.00;;;;;;5088397;28;19962;-67
2023/05/02 03:23:28;;;;;;;;;;;11.80;79.20;;;;;;5089079;28;19933;-66
2023/05/02 03:25:55;;;;;;;;;;;11.70;79.20;;;;;;5068817;28;20390;-67
2023/05/02 03:28:26;;;;;;;;;;;11.70;79.20;;;;;;5069108;28;19924;-67
2023/05/02 03:30:53;;;;;;;;;;;11.70;79.40;;;;;;5069737;28;19934;-67
2023/05/02 03:33:21;;;;;;;;;;;11.70;79.40;;;;;;5089324;28;19935;-67
2023/05/02 03:35:48;;;;;;;;;;;11.60;79.50;;;;;;5072669;28;20534;-65
2023/05/02 03:38:15;;;;;;;;;;;11.60;79.70;;;;;;5091255;28;19931;-66
2023/05/02 03:40:44;;;;;;;;;;;11.60;79.80;;;;;;5069247;28;19931;-68
2023/05/02 03:43:11;;;;;;;;;;;11.40;79.90;;;;;;5070156;28;19931;-66
2023/05/02 03:45:40;;;;;;;;;;;11.50;79.80;;;;;;5064866;28;19925;-68
2023/05/02 03:48:07;;;;;;;;;;;11.50;79.70;;;;;;5070808;28;19939;-68
2023/05/02 03:50:34;;;;;;;;;;;11.40;79.70;;;;;;5088713;28;20370;-67
2023/05/02 03:53:01;;;;;;;;;;;11.40;79.70;;;;;;5071553;28;20446;-67
2023/05/02 03:55:39;;;;;;;;;;;11.40;79.70;;;;;;5085791;28;19973;-67
2023/05/02 03:58:07;;;;;;;;;;;11.40;79.50;;;;;;5071589;28;19969;-68
2023/05/02 04:00:34;;;;;;;;;;;11.40;79.60;;;;;;5071498;28;19928;-67
2023/05/02 04:03:07;;;;;;;;;;;11.40;79.70;;;;;;5083686;28;19988;-67
2023/05/02 04:05:36;;;;;;;;;;;11.30;79.90;;;;;;5069186;28;19924;-66
2023/05/02 04:08:02;;;;;;;;;;;11.40;79.90;;;;;;5068120;28;20504;-67
2023/05/02 04:10:30;;;;;;;;;;;11.40;79.80;;;;;;5069505;28;19938;-67
2023/05/02 04:13:01;;;;;;;;;;;11.40;79.90;;;;;;5065273;28;19928;-67
2023/05/02 04:15:29;;;;;;;;;;;11.50;79.70;;;;;;5069301;28;20197;-67
2023/05/02 04:17:57;;;;;;;;;;;11.50;79.50;;;;;;5070184;28;19924;-66
2023/05/02 04:20:25;;;;;;;;;;;11.60;79.50;;;;;;5085103;28;19924;-67
2023/05/02 04:22:54;;;;;;;;;;;11.60;79.50;;;;;;5069960;28;20320;-67
2023/05/02 04:25:21;;;;;;;;;;;11.60;79.60;;;;;;5088745;28;19928;-66
2023/05/02 04:27:49;;;;;;;;;;;11.60;79.70;;;;;;5069256;28;19924;-67
2023/05/02 04:30:19;;;;;;;;;;;11.60;79.50;;;;;;5070300;28;19942;-67
2023/05/02 04:32:56;;;;;;;;;;;11.60;79.90;;;;;;5073019;28;19936;-67
2023/05/02 04:35:26;;;;;;;;;;;11.50;80.20;;;;;;5070060;28;19932;-68
2023/05/02 04:37:52;;;;;;;;;;;11.40;80.60;;;;;;5083818;28;20005;-67
2023/05/02 04:40:19;;;;;;;;;;;11.40;80.60;;;;;;5088308;28;20049;-67
2023/05/02 04:42:49;;;;;;;;;;;11.40;80.80;;;;;;5071582;28;19939;-68
2023/05/02 04:45:20;;;;;;;;;;;11.40;80.90;;;;;;5084708;28;19924;-67
2023/05/02 04:47:46;;;;;;;;;;;11.40;80.80;;;;;;5087945;28;20309;-66
2023/05/02 04:50:13;;;;;;;;;;;11.40;80.80;;;;;;5071978;28;19924;-67
2023/05/02 04:52:41;;;;;;;;;;;11.50;80.80;;;;;;5081275;28;19971;-67
2023/05/02 04:55:08;;;;;;;;;;;11.60;80.80;;;;;;5085282;28;19927;-66
2023/05/02 04:57:38;;;;;;;;;;;11.60;80.60;;;;;;5070650;28;19950;-67
2023/05/02 05:00:06;;;;;;;;;;;11.60;80.50;;;;;;5070543;28;20013;-66
2023/05/02 05:02:33;;;;;;;;;;;11.60;80.40;;;;;;5089806;28;19932;-67
2023/05/02 05:05:01;;;;;;;;;;;11.70;80.40;;;;;;5072655;28;19964;-67
2023/05/02 05:07:27;;;;;;;;;;;11.70;80.50;;;;;;5089396;28;19936;-67
2023/05/02 05:09:56;;;;;;;;;;;11.70;80.60;;;;;;5073820;28;20385;-67
2023/05/02 05:12:26;;;;;;;;;;;11.70;80.50;;;;;;5074497;28;19932;-68
2023/05/02 05:14:55;;;;;;;;;;;11.70;80.70;;;;;;5070391;28;19932;-67
2023/05/02 05:17:25;;;;;;;;;;;11.70;80.70;;;;;;5071444;28;20492;-66
2023/05/02 05:19:52;;;;;;;;;;;11.70;80.80;;;;;;5074960;28;19931;-67
2023/05/02 05:22:20;;;;;;;;;;;11.70;80.90;;;;;;5071201;28;19975;-67
2023/05/02 05:24:53;;;;;;;;;;;11.80;81.00;;;;;;5086798;28;19977;-68
2023/05/02 05:27:22;;;;;;;;;;;11.80;81.00;;;;;;5075195;28;19958;-67
2023/05/02 05:29:52;;;;;;;;;;;11.90;81.00;;;;;;5090477;28;19924;-67
2023/05/02 05:32:20;;;;;;;;;;;11.90;80.70;;;;;;5072698;28;20019;-67
2023/05/02 05:34:51;;;;;;;;;;;12.00;80.80;;;;;;5075144;28;19994;-67
2023/05/02 05:37:19;;;;;;;;;;;12.00;80.60;;;;;;5071339;28;19924;-68
2023/05/02 05:39:46;;;;;;;;;;;12.00;80.80;;;;;;5072392;28;19924;-67
2023/05/02 05:42:13;;;;;;;;;;;12.00;80.90;;;;;;5090928;28;19975;-67
2023/05/02 05:44:42;;;;;;;;;;;12.10;80.50;;;;;;5072692;28;19928;-67
2023/05/02 05:47:10;;;;;;;;;;;12.10;81.10;;;;;;5073628;28;20375;-68
2023/05/02 05:49:37;;;;;;;;;;;12.20;80.50;;;;;;5073455;28;19930;-67
2023/05/02 05:52:04;;;;;;;;;;;12.20;80.40;;;;;;5073911;28;20387;-67
2023/05/02 05:54:31;;;;;;;;;;;12.20;80.40;;;;;;5072357;28;19939;-66
2023/05/02 05:57:00;;;;;;;;;;;12.20;80.40;;;;;;5069202;28;20268;-67
2023/05/02 05:59:27;;;;;;;;;;;12.20;80.40;;;;;;5090737;28;19951;-66
2023/05/02 06:01:55;;;;;;;;;;;12.20;80.70;;;;;;5074648;28;19930;-67
2023/05/02 06:04:23;;;;;;;;;;;12.30;80.20;;;;;;5067515;28;20295;-67
2023/05/02 06:06:52;;;;;;;;;;;12.30;80.10;;;;;;5091356;28;19970;-66
2023/05/02 06:09:19;;;;;;;;;;;12.40;80.30;;;;;;5091443;28;19993;-68
2023/05/02 06:11:45;;;;;;;;;;;12.50;79.80;;;;;;5085994;28;19935;-66
2023/05/02 06:14:12;;;;;;;;;;;12.60;79.40;;;;;;5090443;28;19932;-67
2023/05/02 06:16:40;;;;;;;;;;;12.70;78.90;;;;;;5092030;28;19928;-67
2023/05/02 06:19:09;;;;;;;;;;;12.90;78.90;;;;;;5070449;28;20019;-66
2023/05/02 06:21:36;;;;;;;;;;;12.90;78.50;;;;;;5089589;28;19947;-67
2023/05/02 06:24:03;;;;;;;;;;;13.00;78.40;;;;;;5081710;28;19932;-67
2023/05/02 06:26:30;;;;;;;;;;;13.10;78.10;;;;;;5090485;28;19928;-67
2023/05/02 06:28:57;;;;;;;;;;;13.20;78.10;;;;;;5091908;28;19924;-68
2023/05/02 06:31:23;;;;;;;;;;;13.20;78.00;;;;;;5089068;28;19952;-68
2023/05/02 06:33:51;;;;;;;;;;;13.30;77.30;;;;;;5093303;28;19923;-67
2023/05/02 06:36:19;;;;;;;;;;;13.40;77.80;;;;;;5090389;28;19928;-68
2023/05/02 06:38:46;;;;;;;;;;;13.40;77.70;;;;;;5090891;28;19939;-68
2023/05/02 06:41:13;;;;;;;;;;;13.40;77.60;;;;;;5087764;28;19924;-67
2023/05/02 06:43:40;;;;;;;;;;;13.50;76.80;;;;;;5087566;28;19928;-68
2023/05/02 06:46:08;;;;;;;;;;;13.60;77.00;;;;;;5089994;28;19939;-67
2023/05/02 06:48:35;;;;;;;;;;;13.60;76.80;;;;;;5089453;28;19964;-68
2023/05/02 06:51:03;;;;;;;;;;;13.60;77.30;;;;;;5088158;28;19928;-67
2023/05/02 06:53:31;;;;;;;;;;;13.60;76.80;;;;;;5086684;28;20019;-67
2023/05/02 06:56:01;;;;;;;;;;;13.60;77.10;;;;;;5084943;28;20386;-67
2023/05/02 06:58:30;;;;;;;;;;;13.60;76.80;;;;;;5090293;28;19928;-67
2023/05/02 07:00:57;;;;;;;;;;;13.70;76.90;;;;;;5091747;28;19934;-67
2023/05/02 07:03:23;;;;;;;;;;;13.70;76.50;;;;;;5087496;28;19928;-67
2023/05/02 07:05:50;;;;;;;;;;;13.90;76.20;;;;;;5088693;28;19939;-68
2023/05/02 07:08:20;;;;;;;;;;;14.00;75.70;;;;;;5089251;28;20299;-68
2023/05/02 07:10:48;;;;;;;;;;;14.10;75.40;;;;;;5090422;28;19928;-66
2023/05/02 07:13:15;;;;;;;;;;;14.20;75.00;;;;;;5085942;28;20298;-67
2023/05/02 07:15:42;;;;;;;;;;;14.10;75.00;;;;;;5088541;28;20018;-67
2023/05/02 07:18:09;;;;;;;;;;;14.10;75.00;;;;;;5082519;28;19924;-67
2023/05/02 07:20:37;;;;;;;;;;;14.10;74.90;;;;;;5090318;28;20022;-67
2023/05/02 07:23:04;;;;;;;;;;;14.20;74.60;;;;;;5085436;28;20365;-68
2023/05/02 07:25:31;;;;;;;;;;;14.20;74.40;;;;;;5090197;28;19931;-67
2023/05/02 07:27:59;;;;;;;;;;;14.20;74.40;;;;;;5089234;28;19977;-67
2023/05/02 07:30:26;;;;;;;;;;;14.20;74.40;;;;;;5089044;28;19928;-67
2023/05/02 07:32:52;;;;;;;;;;;14.20;74.40;;;;;;5087284;28;19931;-68
2023/05/02 07:35:19;;;;;;;;;;;14.10;74.40;;;;;;5088975;28;19924;-67
2023/05/02 07:37:46;;;;;;;;;;;14.10;74.10;;;;;;5085603;28;19928;-67
2023/05/02 07:40:13;;;;;;;;;;;14.10;74.10;;;;;;5090852;28;19989;-66
2023/05/02 07:42:40;;;;;;;;;;;14.20;73.90;;;;;;5090928;28;19932;-67
2023/05/02 07:45:09;;;;;;;;;;;14.20;73.50;;;;;;5087933;28;20409;-68
2023/05/02 07:47:36;;;;;;;;;;;14.30;73.30;;;;;;5089203;28;20042;-67
2023/05/02 07:50:03;;;;;;;;;;;14.50;72.90;;;;;;5087029;28;19925;-67
2023/05/02 07:52:30;;;;;;;;;;;14.60;72.50;;;;;;5085824;28;19938;-67
2023/05/02 07:54:57;;;;;;;;;;;14.80;72.30;;;;;;5086610;28;19924;-68
2023/05/02 07:57:24;;;;;;;;;;;14.90;72.10;;;;;;5086780;28;20409;-67
2023/05/02 07:59:51;;;;;;;;;;;14.90;71.90;;;;;;5088884;28;19930;-67
2023/05/02 08:02:20;;;;;;;;;;;14.90;71.60;;;;;;5088721;28;19932;-67
2023/05/02 08:04:47;;;;;;;;;;;14.90;70.90;;;;;;5085916;28;20449;-66
2023/05/02 08:07:14;;;;;;;;;;;15.00;70.70;;;;;;5087881;28;20052;-67
2023/05/02 08:09:41;;;;;;;;;;;14.90;70.60;;;;;;5090206;28;19928;-67
2023/05/02 08:12:08;;;;;;;;;;;14.90;70.40;;;;;;5088930;28;19938;-67
2023/05/02 08:14:35;;;;;;;;;;;14.90;70.10;;;;;;5087308;28;20422;-67
2023/05/02 08:17:02;;;;;;;;;;;14.90;70.20;;;;;;5089151;28;20001;-67
2023/05/02 08:19:30;;;;;;;;;;;14.90;70.10;;;;;;5085907;28;19932;-67
2023/05/02 08:21:58;;;;;;;;;;;14.90;69.90;;;;;;5088367;28;19931;-67
2023/05/02 08:24:25;;;;;;;;;;;14.90;69.90;;;;;;5082078;28;19931;-67
2023/05/02 08:26:52;;;;;;;;;;;14.90;69.70;;;;;;5089110;28;19924;-67
2023/05/02 08:29:19;;;;;;;;;;;14.90;69.90;;;;;;5089422;28;19976;-67
2023/05/02 08:31:45;;;;;;;;;;;14.90;69.80;;;;;;5087062;28;20418;-67
2023/05/02 08:34:12;;;;;;;;;;;14.90;69.40;;;;;;5086245;28;19924;-66
2023/05/02 08:36:40;;;;;;;;;;;14.90;68.90;;;;;;5083825;28;19939;-67
2023/05/02 08:39:08;;;;;;;;;;;15.00;68.70;;;;;;5088022;28;19924;-68
2023/05/02 08:41:35;;;;;;;;;;;15.10;68.50;;;;;;5087725;28;19974;-67
2023/05/02 08:44:03;;;;;;;;;;;15.20;68.10;;;;;;5088799;28;19966;-67
2023/05/02 08:46:30;;;;;;;;;;;15.30;68.30;;;;;;5089336;28;19934;-67
2023/05/02 08:48:58;;;;;;;;;;;15.40;68.50;;;;;;5086256;28;19928;-67
2023/05/02 08:51:27;;;;;;;;;;;15.50;68.10;;;;;;5089329;28;19924;-67
2023/05/02 08:53:55;;;;;;;;;;;15.60;67.90;;;;;;5087967;28;19947;-68
2023/05/02 08:56:24;;;;;;;;;;;15.60;67.20;;;;;;5088375;28;19935;-70
2023/05/02 08:58:50;;;;;;;;;;;15.60;66.90;;;;;;5088972;28;19936;-67
2023/05/02 09:01:20;;;;;;;;;;;15.70;66.80;;;;;;5088377;28;20018;-67
2023/05/02 09:03:49;;;;;;;;;;;15.70;66.80;;;;;;5089032;28;19928;-67
2023/05/02 09:06:17;;;;;;;;;;;15.70;65.70;;;;;;5088227;28;20371;-67
2023/05/02 09:08:44;;;;;;;;;;;15.70;66.00;;;;;;5087118;28;19971;-67
2023/05/02 09:11:13;;;;;;;;;;;15.70;65.80;;;;;;5085111;28;20010;-67
2023/05/02 09:13:41;;;;;;;;;;;15.70;65.60;;;;;;5089630;28;19995;-67
2023/05/02 09:16:08;;;;;;;;;;;15.80;64.90;;;;;;5085837;28;19927;-67
2023/05/02 09:18:35;;;;;;;;;;;15.80;65.30;;;;;;5091129;28;19928;-66
2023/05/02 09:21:05;;;;;;;;;;;15.80;64.60;;;;;;5086754;28;19928;-67
2023/05/02 09:23:33;;;;;;;;;;;15.90;64.70;;;;;;5089702;28;20018;-67
2023/05/02 09:26:00;;;;;;;;;;;16.10;65.30;;;;;;5089281;28;19932;-67
2023/05/02 09:28:41;;;;;;;;;;;16.40;64.90;;;;;;5088942;28;20328;-67
2023/05/02 09:31:09;;;;;;;;;;;16.50;65.40;;;;;;5085181;28;19928;-67
2023/05/02 09:33:36;;;;;;;;;;;16.50;64.70;;;;;;5087426;28;19928;-68
2023/05/02 09:36:03;;;;;;;;;;;16.50;64.40;;;;;;5089031;28;19977;-67
2023/05/02 09:38:30;;;;;;;;;;;16.50;63.40;;;;;;5088999;28;19932;-67
2023/05/02 09:40:57;;;;;;;;;;;16.60;63.40;;;;;;5089142;28;19946;-67
2023/05/02 09:43:23;;;;;;;;;;;16.60;62.80;;;;;;5088258;28;19931;-67
2023/05/02 09:45:58;;;;;;;;;;;16.60;62.40;;;;;;5085681;28;19931;-68
2023/05/02 09:48:26;;;;;;;;;;;16.60;62.00;;;;;;5091568;28;19935;-68
2023/05/02 09:50:53;;;;;;;;;;;16.50;62.10;;;;;;5092854;28;19935;-69
2023/05/02 09:53:20;;;;;;;;;;;16.40;61.30;;;;;;5090025;28;20389;-67
2023/05/02 09:55:47;;;;;;;;;;;16.60;60.40;;;;;;5092355;28;19925;-68
2023/05/02 09:58:21;;;;;;;;;;;16.70;61.40;;;;;;5092993;28;19924;-67
2023/05/02 10:00:49;;;;;;;;;;;17.00;61.30;;;;;;5089664;28;19931;-67
2023/05/02 10:03:18;;;;;;;;;;;17.10;61.40;;;;;;5093194;28;19939;-68
2023/05/02 10:05:45;;;;;;;;;;;17.20;61.50;;;;;;5088959;28;20015;-69
2023/05/02 10:08:13;;;;;;;;;;;17.20;61.70;;;;;;5089689;28;19928;-67
2023/05/02 10:10:42;;;;;;;;;;;17.10;61.80;;;;;;5092131;28;19928;-67
2023/05/02 10:13:09;;;;;;;;;;;17.00;61.40;;;;;;5090233;28;19928;-68
2023/05/02 10:15:40;;;;;;;;;;;17.00;61.40;;;;;;5089995;28;19931;-67
2023/05/02 10:18:13;;;;;;;;;;;17.00;61.30;;;;;;5090062;28;19924;-68
2023/05/02 10:20:44;;;;;;;;;;;17.20;61.20;;;;;;5085574;28;19928;-67
2023/05/02 10:23:15;;;;;;;;;;;17.40;60.50;;;;;;5069000;28;19932;-68
2023/05/02 10:25:42;;;;;;;;;;;17.60;60.50;;;;;;5089909;28;19924;-67
2023/05/02 10:28:09;;;;;;;;;;;17.70;60.30;;;;;;5090308;28;19928;-67
2023/05/02 10:30:37;;;;;;;;;;;17.70;59.70;;;;;;5091906;28;19939;-68
2023/05/02 10:33:04;;;;;;;;;;;18.00;59.70;;;;;;5093134;28;19935;-66
2023/05/02 10:35:31;;;;;;;;;;;18.10;60.20;;;;;;5089349;28;19985;-67
2023/05/02 10:38:03;;;;;;;;;;;18.10;59.60;;;;;;5091172;28;20292;-68
2023/05/02 10:40:30;;;;;;;;;;;18.20;59.20;;;;;;5093027;28;19935;-67
2023/05/02 10:42:57;;;;;;;;;;;18.10;58.30;;;;;;5089573;28;19924;-67
2023/05/02 10:45:34;;;;;;;;;;;18.10;58.20;;;;;;5090521;28;20062;-67
2023/05/02 10:48:17;;;;;;;;;;;18.30;57.40;;;;;;5089971;28;20272;-66
2023/05/02 10:50:47;;;;;;;;;;;18.40;57.00;;;;;;5089145;28;20371;-66
2023/05/02 10:53:29;;;;;;;;;;;18.30;56.70;;;;;;5088596;28;19924;-66
2023/05/02 10:56:12;;;;;;;;;;;18.10;56.10;;;;;;5089484;28;19942;-67
2023/05/02 10:58:39;;;;;;;;;;;18.10;55.30;;;;;;5088462;28;19935;-68
2023/05/02 11:01:25;;;;;;;;;;;18.10;55.80;;;;;;5091847;28;19935;-67
2023/05/02 11:03:53;;;;;;;;;;;18.10;55.70;;;;;;5088114;28;19934;-67
2023/05/02 11:06:20;;;;;;;;;;;18.10;55.60;;;;;;5089345;28;19930;-67
2023/05/02 11:08:48;;;;;;;;;;;18.10;55.80;;;;;;5088892;28;19939;-68
2023/05/02 11:11:34;;;;;;;;;;;18.20;56.00;;;;;;5088151;28;19936;-66
2023/05/02 11:14:01;;;;;;;;;;;18.30;56.30;;;;;;5089844;28;19970;-67
2023/05/02 11:16:45;;;;;;;;;;;18.50;56.40;;;;;;5090469;28;19928;-67
2023/05/02 11:19:15;;;;;;;;;;;18.60;56.00;;;;;;5091625;28;19986;-68
2023/05/02 11:21:42;;;;;;;;;;;18.90;55.20;;;;;;5088322;28;19932;-67
2023/05/02 11:24:30;;;;;;;;;;;18.90;54.80;;;;;;5069143;28;19932;-67
2023/05/02 11:27:11;;;;;;;;;;;19.00;55.20;;;;;;5087448;28;19978;-67
2023/05/02 11:29:56;;;;;;;;;;;19.00;54.70;;;;;;5085431;28;20405;-67
2023/05/02 11:32:24;;;;;;;;;;;18.90;54.80;;;;;;5091582;28;19928;-68
2023/05/02 11:34:51;;;;;;;;;;;18.70;54.40;;;;;;5089989;28;19935;-68
2023/05/02 11:37:18;;;;;;;;;;;18.60;54.30;;;;;;5091477;28;19924;-68
2023/05/02 11:39:46;;;;;;;;;;;18.50;53.90;;;;;;5071249;28;20351;-67
2023/05/02 11:42:27;;;;;;;;;;;18.70;54.20;;;;;;5088838;28;19928;-68
2023/05/02 11:44:59;;;;;;;;;;;19.00;53.40;;;;;;5090907;28;20302;-67
2023/05/02 11:47:28;;;;;;;;;;;19.40;52.90;;;;;;5090685;28;19928;-66
2023/05/02 11:49:55;;;;;;;;;;;19.50;52.00;;;;;;5091407;28;19924;-67
2023/05/02 11:52:22;;;;;;;;;;;19.50;50.80;;;;;;5090402;28;19928;-67
2023/05/02 11:54:49;;;;;;;;;;;19.30;51.60;;;;;;5070615;28;19934;-66
2023/05/02 11:57:16;;;;;;;;;;;19.10;52.20;;;;;;5086335;28;19940;-68
2023/05/02 11:59:50;;;;;;;;;;;19.20;53.10;;;;;;5089452;28;19924;-66
2023/05/02 12:02:18;;;;;;;;;;;19.40;52.80;;;;;;5090180;28;20287;-67
2023/05/02 12:04:44;;;;;;;;;;;19.40;53.20;;;;;;5089611;28;19924;-65
2023/05/02 12:07:11;;;;;;;;;;;19.30;51.00;;;;;;5091375;28;19955;-67
2023/05/02 12:09:49;;;;;;;;;;;19.30;51.00;;;;;;5084318;28;20031;-68
2023/05/02 12:12:19;;;;;;;;;;;19.20;50.80;;;;;;5088419;28;19934;-67
2023/05/02 12:14:46;;;;;;;;;;;19.10;51.40;;;;;;5090063;28;19931;-67
2023/05/02 12:17:13;;;;;;;;;;;19.00;50.90;;;;;;5086243;28;19977;-67
2023/05/02 12:19:41;;;;;;;;;;;18.90;51.10;;;;;;5091173;28;20008;-67
2023/05/02 12:22:09;;;;;;;;;;;18.80;52.50;;;;;;5087610;28;19928;-68
2023/05/02 12:24:36;;;;;;;;;;;18.80;51.30;;;;;;5087570;28;19924;-67
2023/05/02 12:27:09;;;;;;;;;;;18.60;50.90;;;;;;5087722;28;19932;-67
2023/05/02 12:29:39;;;;;;;;;;;18.50;51.50;;;;;;5087006;28;19927;-67
2023/05/02 12:32:07;;;;;;;;;;;18.30;52.20;;;;;;5084742;28;19928;-68
2023/05/02 12:34:34;;;;;;;;;;;18.30;53.10;;;;;;5086468;28;19932;-67
2023/05/02 12:37:03;;;;;;;;;;;18.30;53.30;;;;;;5081305;28;19930;-66
2023/05/02 12:39:36;;;;;;;;;;;18.20;53.60;;;;;;5084201;28;19928;-67
2023/05/02 12:42:12;;;;;;;;;;;18.10;54.40;;;;;;5082618;28;19932;-67
2023/05/02 12:44:40;;;;;;;;;;;18.00;54.40;;;;;;5084848;28;19928;-68
2023/05/02 12:47:07;;;;;;;;;;;18.00;54.90;;;;;;5088202;28;19932;-67
2023/05/02 12:49:47;;;;;;;;;;;17.90;55.20;;;;;;5088976;28;20392;-68
2023/05/02 12:52:15;;;;;;;;;;;17.90;54.90;;;;;;5089526;28;19930;-67
2023/05/02 12:54:42;;;;;;;;;;;17.80;55.20;;;;;;5085865;28;19938;-68
2023/05/02 12:57:10;;;;;;;;;;;17.70;55.40;;;;;;5090957;28;20014;-68
2023/05/02 12:59:39;;;;;;;;;;;17.80;56.10;;;;;;5088998;28;20288;-67
2023/05/02 13:02:07;;;;;;;;;;;17.70;56.60;;;;;;5089633;28;19935;-68
2023/05/02 13:04:34;;;;;;;;;;;17.80;56.20;;;;;;5086095;28;19928;-68
2023/05/02 13:07:01;;;;;;;;;;;17.80;56.00;;;;;;5086445;28;19928;-68
2023/05/02 13:09:29;;;;;;;;;;;17.80;56.00;;;;;;5089232;28;19934;-66
2023/05/02 13:11:57;;;;;;;;;;;17.90;56.20;;;;;;5089436;28;19963;-68
2023/05/02 13:14:24;;;;;;;;;;;18.00;56.30;;;;;;5089951;28;19935;-67
2023/05/02 13:16:52;;;;;;;;;;;18.10;55.40;;;;;;5088751;28;19931;-67
2023/05/02 13:19:19;;;;;;;;;;;18.30;55.80;;;;;;5089537;28;19963;-67
2023/05/02 13:21:46;;;;;;;;;;;18.50;54.90;;;;;;5089456;28;19966;-67
2023/05/02 13:24:13;;;;;;;;;;;18.60;54.60;;;;;;5090001;28;20401;-66
2023/05/02 13:26:43;;;;;;;;;;;18.80;54.70;;;;;;5093827;28;19930;-66
2023/05/02 13:29:11;;;;;;;;;;;18.90;53.60;;;;;;5073655;28;19928;-67
2023/05/02 13:31:38;;;;;;;;;;;18.90;52.20;;;;;;5093898;28;20088;-64
2023/05/02 13:34:05;;;;;;;;;;;19.00;53.10;;;;;;5076010;28;19931;-67
2023/05/02 13:36:32;;;;;;;;;;;18.90;53.30;;;;;;5090422;28;19924;-68
2023/05/02 13:39:00;;;;;;;;;;;18.90;52.70;;;;;;5092434;28;19924;-67
2023/05/02 13:41:27;;;;;;;;;;;18.70;52.40;;;;;;5092093;28;19959;-68
2023/05/02 13:43:55;;;;;;;;;;;18.60;52.70;;;;;;5091132;28;19932;-68
2023/05/02 13:46:22;;;;;;;;;;;18.40;52.40;;;;;;5089320;28;19928;-67
2023/05/02 13:48:49;;;;;;;;;;;18.40;52.10;;;;;;5091615;28;19932;-67
2023/05/02 13:51:16;;;;;;;;;;;18.40;52.50;;;;;;5092766;28;19924;-66
2023/05/02 13:53:43;;;;;;;;;;;18.40;53.10;;;;;;5089974;28;19979;-67
2023/05/02 13:56:09;;;;;;;;;;;18.50;53.00;;;;;;5092388;28;19924;-67
2023/05/02 13:58:36;;;;;;;;;;;18.50;52.80;;;;;;5092080;28;19928;-67
2023/05/02 14:01:04;;;;;;;;;;;18.40;53.20;;;;;;5090393;28;19924;-67
2023/05/02 14:03:31;;;;;;;;;;;18.30;53.50;;;;;;5090540;28;20387;-67
2023/05/02 14:05:58;;;;;;;;;;;18.30;53.70;;;;;;5082879;28;19935;-67
2023/05/02 14:08:25;;;;;;;;;;;18.30;53.40;;;;;;5091789;28;19928;-66
2023/05/02 14:10:52;;;;;;;;;;;18.40;53.30;;;;;;5090193;28;19928;-67
2023/05/02 14:13:19;;;;;;;;;;;18.40;53.60;;;;;;5091862;28;19924;-67
2023/05/02 14:15:46;;;;;;;;;;;18.50;53.90;;;;;;5091799;28;19930;-67
2023/05/02 14:18:15;;;;;;;;;;;18.50;53.70;;;;;;5089822;28;19939;-66
2023/05/02 14:20:42;;;;;;;;;;;18.60;54.30;;;;;;5087348;28;19928;-67
2023/05/02 14:23:09;;;;;;;;;;;18.60;54.70;;;;;;5086025;28;19924;-67
2023/05/02 14:25:35;;;;;;;;;;;18.70;54.10;;;;;;5068669;28;19927;-66